createdAt,value
2022-10-06T00:00:53.425Z,4.10
2022-10-06T00:03:23.141Z,4.47
2022-10-06T00:05:51.305Z,4.57
2022-10-06T00:08:20.058Z,4.40
2022-10-06T00:10:47.746Z,5.00
2022-10-06T00:13:15.464Z,4.80
2022-10-06T00:15:43.218Z,4.97
2022-10-06T00:18:12.422Z,4.97
2022-10-06T00:20:43.243Z,5.03
2022-10-06T00:23:11.206Z,4.80
2022-10-06T00:25:40.072Z,4.77
2022-10-06T00:28:07.775Z,4.60
2022-10-06T00:30:35.467Z,4.63
2022-10-06T00:33:04.509Z,4.57
2022-10-06T00:35:35.158Z,4.20
2022-10-06T00:38:03.301Z,4.40
2022-10-06T00:40:32.622Z,3.90
2022-10-06T00:43:02.417Z,4.13
2022-10-06T00:45:34.729Z,3.70
2022-10-06T00:48:06.179Z,4.20
2022-10-06T00:50:36.648Z,4.00
2022-10-06T00:53:07.319Z,4.03
2022-10-06T00:55:35.150Z,3.30
2022-10-06T00:58:03.165Z,3.63
2022-10-06T01:00:30.970Z,3.63
2022-10-06T01:03:06.052Z,3.67
2022-10-06T01:05:41.605Z,3.17
2022-10-06T01:08:09.770Z,3.10
2022-10-06T01:10:37.567Z,3.40
2022-10-06T01:13:06.556Z,3.43
2022-10-06T01:15:34.966Z,3.13
2022-10-06T01:18:07.156Z,3.20
2022-10-06T01:20:38.373Z,3.30
2022-10-06T01:23:10.094Z,2.93
2022-10-06T01:25:38.382Z,2.93
2022-10-06T01:28:08.812Z,3.53
2022-10-06T01:30:40.546Z,3.33
2022-10-06T01:33:08.521Z,2.67
2022-10-06T01:35:36.275Z,3.40
2022-10-06T01:38:04.218Z,3.30
2022-10-06T01:40:33.328Z,3.10
2022-10-06T01:43:01.034Z,3.03
2022-10-06T01:45:28.984Z,3.10
2022-10-06T01:47:56.761Z,2.90
2022-10-06T01:50:24.505Z,3.10
2022-10-06T01:52:52.235Z,2.80
2022-10-06T01:55:19.922Z,3.23
2022-10-06T01:57:49.015Z,2.87
2022-10-06T02:00:16.814Z,3.03
2022-10-06T02:02:44.829Z,2.90
2022-10-06T02:05:14.509Z,3.10
2022-10-06T02:07:42.611Z,3.03
2022-10-06T02:10:11.003Z,3.00
2022-10-06T02:12:39.167Z,3.10
2022-10-06T02:15:10.553Z,3.20
2022-10-06T02:17:39.032Z,3.30
2022-10-06T02:20:07.385Z,2.80
2022-10-06T02:22:38.581Z,3.00
2022-10-06T02:25:06.730Z,3.50
2022-10-06T02:27:34.485Z,3.37
2022-10-06T02:30:02.398Z,3.50
2022-10-06T02:32:35.367Z,3.30
2022-10-06T02:35:03.715Z,3.53
2022-10-06T02:37:31.477Z,3.57
2022-10-06T02:39:59.241Z,3.50
2022-10-06T02:42:26.908Z,3.80
2022-10-06T02:44:54.649Z,3.57
2022-10-06T02:47:22.636Z,4.17
2022-10-06T02:49:51.709Z,3.60
2022-10-06T02:52:19.457Z,4.30
2022-10-06T02:54:47.173Z,3.90
2022-10-06T02:57:16.280Z,3.50
2022-10-06T02:59:43.965Z,3.57
2022-10-06T03:02:11.782Z,3.90
2022-10-06T03:04:39.507Z,3.43
2022-10-06T03:07:08.553Z,2.73
2022-10-06T03:09:36.551Z,2.70
2022-10-06T03:12:04.550Z,3.40
2022-10-06T03:14:32.218Z,2.30
2022-10-06T03:17:00.359Z,2.20
2022-10-06T03:19:28.059Z,2.80
2022-10-06T03:21:55.787Z,1.90
2022-10-06T03:24:24.812Z,1.60
2022-10-06T03:26:52.541Z,1.40
2022-10-06T03:29:20.303Z,1.30
2022-10-06T03:31:48.308Z,1.10
2022-10-06T03:34:16.131Z,1.00
2022-10-06T03:36:44.090Z,1.10
2022-10-06T03:39:11.916Z,1.13
2022-10-06T03:41:41.091Z,1.10
2022-10-06T03:44:08.841Z,1.10
2022-10-06T03:46:37.466Z,1.10
2022-10-06T03:49:05.705Z,1.00
2022-10-06T03:51:36.411Z,1.30
2022-10-06T03:54:04.233Z,1.00
2022-10-06T03:56:33.467Z,0.90
2022-10-06T03:59:04.629Z,1.20
2022-10-06T04:01:34.399Z,0.70
2022-10-06T04:04:03.402Z,0.73
2022-10-06T04:06:32.989Z,0.77
2022-10-06T04:09:01.429Z,0.83
2022-10-06T04:11:31.548Z,0.83
2022-10-06T04:14:01.191Z,1.20
2022-10-06T04:16:32.325Z,0.70
2022-10-06T04:19:01.907Z,0.90
2022-10-06T04:21:31.784Z,0.97
2022-10-06T04:24:00.978Z,0.70
2022-10-06T04:26:31.436Z,0.97
2022-10-06T04:29:00.521Z,0.80
2022-10-06T04:31:32.850Z,1.00
2022-10-06T04:34:01.909Z,0.70
2022-10-06T04:36:32.141Z,0.80
2022-10-06T04:39:02.673Z,0.53
2022-10-06T04:41:32.801Z,1.30
2022-10-06T04:44:00.907Z,0.80
2022-10-06T04:46:45.451Z,0.87
2022-10-06T04:49:19.971Z,0.80
2022-10-06T04:51:49.318Z,0.80
2022-10-06T04:54:17.165Z,1.43
2022-10-06T04:56:44.922Z,0.90
2022-10-06T04:59:12.722Z,0.80
2022-10-06T05:01:40.456Z,0.80
2022-10-06T05:04:08.339Z,0.73
2022-10-06T05:06:39.669Z,0.67
2022-10-06T05:09:09.413Z,0.87
2022-10-06T05:11:37.389Z,0.97
2022-10-06T05:14:05.461Z,0.90
2022-10-06T05:16:33.283Z,0.80
2022-10-06T05:19:01.081Z,0.93
2022-10-06T05:21:30.260Z,0.87
2022-10-06T05:23:59.792Z,0.90
2022-10-06T05:26:30.062Z,0.87
2022-10-06T05:28:58.498Z,0.90
2022-10-06T05:31:28.518Z,1.00
2022-10-06T05:33:57.308Z,0.80
2022-10-06T05:36:27.489Z,0.80
2022-10-06T05:38:56.093Z,0.80
2022-10-06T05:41:26.445Z,0.93
2022-10-06T05:43:54.694Z,1.10
2022-10-06T05:46:25.143Z,1.13
2022-10-06T05:48:55.487Z,1.30
2022-10-06T05:51:30.111Z,1.73
2022-10-06T05:53:58.741Z,1.50
2022-10-06T05:56:28.827Z,1.60
2022-10-06T05:58:58.014Z,1.47
2022-10-06T06:01:28.819Z,1.30
2022-10-06T06:03:59.463Z,1.47
2022-10-06T06:06:29.439Z,1.00
2022-10-06T06:08:59.492Z,1.17
2022-10-06T06:11:31.263Z,1.00
2022-10-06T06:13:59.918Z,1.30
2022-10-06T06:16:29.489Z,1.30
2022-10-06T06:18:57.689Z,1.27
2022-10-06T06:21:26.165Z,1.00
2022-10-06T06:23:55.748Z,1.10
2022-10-06T06:26:25.206Z,1.43
2022-10-06T06:28:56.031Z,1.20
2022-10-06T06:31:26.731Z,1.40
2022-10-06T06:33:56.316Z,1.03
2022-10-06T06:36:25.867Z,1.60
2022-10-06T06:38:55.295Z,1.67
2022-10-06T06:41:24.842Z,1.40
2022-10-06T06:43:54.629Z,1.10
2022-10-06T06:46:24.939Z,1.03
2022-10-06T06:48:53.706Z,1.40
2022-10-06T06:51:23.026Z,1.47
2022-10-06T06:53:51.179Z,2.00
2022-10-06T06:56:19.287Z,1.30
2022-10-06T06:58:48.930Z,1.50
2022-10-06T07:01:20.309Z,1.53
2022-10-06T07:03:57.589Z,1.20
2022-10-06T07:06:28.746Z,1.40
2022-10-06T07:08:58.037Z,2.00
2022-10-06T07:11:27.921Z,1.10
2022-10-06T07:13:57.633Z,1.63
2022-10-06T07:16:44.460Z,1.53
2022-10-06T07:19:30.626Z,1.20
2022-10-06T07:22:18.464Z,1.40
2022-10-06T07:25:04.466Z,1.40
2022-10-06T07:27:33.561Z,1.30
2022-10-06T07:30:01.381Z,1.60
2022-10-06T07:32:31.146Z,1.97
2022-10-06T07:35:00.607Z,1.47
2022-10-06T07:37:29.703Z,1.47
2022-10-06T07:39:57.433Z,1.30
2022-10-06T07:42:25.297Z,1.13
2022-10-06T07:45:07.113Z,1.23
2022-10-06T07:47:38.071Z,1.43
2022-10-06T07:50:06.556Z,1.70
2022-10-06T07:52:36.423Z,1.40
2022-10-06T07:55:04.612Z,1.50
2022-10-06T07:57:35.381Z,1.20
2022-10-06T08:00:05.471Z,1.83
2022-10-06T08:02:35.793Z,1.27
2022-10-06T08:05:07.088Z,1.40
2022-10-06T08:07:35.010Z,1.20
2022-10-06T08:10:02.839Z,1.37
2022-10-06T08:12:37.839Z,1.27
2022-10-06T08:15:07.733Z,1.30
2022-10-06T08:17:37.047Z,1.30
2022-10-06T08:20:08.313Z,1.50
2022-10-06T08:22:36.647Z,1.47
2022-10-06T08:25:06.618Z,1.50
2022-10-06T08:27:35.853Z,1.50
2022-10-06T08:30:04.482Z,1.90
2022-10-06T08:32:33.120Z,1.30
2022-10-06T08:35:00.982Z,2.30
2022-10-06T08:37:30.163Z,1.60
2022-10-06T08:39:57.962Z,1.97
2022-10-06T08:42:35.421Z,3.50
2022-10-06T08:45:07.171Z,1.40
2022-10-06T08:47:37.061Z,1.40
2022-10-06T08:50:07.215Z,1.57
2022-10-06T08:52:49.351Z,1.60
2022-10-06T08:55:30.490Z,1.77
2022-10-06T09:00:44.553Z,1.13
2022-10-06T09:03:23.611Z,1.60
2022-10-06T09:05:54.046Z,1.50
2022-10-06T09:08:39.715Z,1.60
2022-10-06T09:11:20.606Z,1.60
2022-10-06T09:13:53.997Z,1.60
2022-10-06T09:16:29.033Z,1.60
2022-10-06T09:19:09.146Z,2.03
2022-10-06T09:21:42.265Z,1.40
2022-10-06T09:24:16.594Z,1.70
2022-10-06T09:26:46.506Z,1.70
2022-10-06T09:29:15.141Z,1.77
2022-10-06T09:31:44.513Z,1.57
2022-10-06T09:34:22.552Z,1.60
2022-10-06T09:37:02.872Z,1.70
2022-10-06T09:39:36.480Z,1.73
2022-10-06T09:42:08.053Z,1.90
2022-10-06T09:44:47.014Z,1.30
2022-10-06T09:47:34.651Z,1.80
2022-10-06T09:50:22.651Z,1.90
2022-10-06T09:53:12.583Z,1.40
2022-10-06T09:55:51.298Z,1.63
2022-10-06T09:58:32.665Z,1.60
2022-10-06T10:01:02.979Z,1.60
2022-10-06T10:04:08.314Z,1.50
2022-10-06T10:06:36.774Z,1.77
2022-10-06T10:09:22.128Z,1.40
2022-10-06T10:12:31.453Z,1.20
2022-10-06T10:15:04.005Z,1.60
2022-10-06T10:17:37.393Z,1.60
2022-10-06T10:20:20.809Z,1.00
2022-10-06T10:22:49.469Z,1.53
2022-10-06T10:25:30.487Z,1.60
2022-10-06T10:28:07.235Z,1.47
2022-10-06T10:30:45.246Z,1.50
2022-10-06T10:33:19.307Z,1.70
2022-10-06T10:35:52.905Z,1.50
2022-10-06T10:38:22.363Z,1.97
2022-10-06T10:40:55.612Z,1.60
2022-10-06T10:43:31.842Z,1.40
2022-10-06T10:46:06.697Z,1.37
2022-10-06T10:48:40.351Z,1.50
2022-10-06T10:51:14.175Z,1.50
2022-10-06T10:53:49.462Z,1.13
2022-10-06T10:56:21.378Z,2.00
2022-10-06T10:58:55.199Z,2.27
2022-10-06T11:01:35.031Z,1.13
2022-10-06T11:04:02.971Z,1.23
2022-10-06T11:06:54.199Z,1.57
2022-10-06T11:09:28.250Z,1.17
2022-10-06T11:12:13.344Z,1.23
2022-10-06T11:14:54.566Z,1.30
2022-10-06T11:17:43.980Z,1.40
2022-10-06T11:20:37.840Z,1.53
2022-10-06T11:23:23.654Z,1.30
2022-10-06T11:26:03.986Z,1.60
2022-10-06T11:28:37.473Z,1.30
2022-10-06T11:31:21.793Z,1.43
2022-10-06T11:33:54.223Z,1.60
2022-10-06T11:36:34.881Z,1.60
2022-10-06T11:39:21.133Z,1.57
2022-10-06T11:41:53.680Z,1.20
2022-10-06T11:44:32.568Z,1.30
2022-10-06T11:47:06.521Z,1.33
2022-10-06T11:49:56.779Z,1.63
2022-10-06T11:52:45.445Z,1.40
2022-10-06T11:55:23.809Z,1.50
2022-10-06T11:58:37.559Z,1.27
2022-10-06T12:01:02.035Z,1.27
2022-10-06T12:03:48.739Z,1.27
2022-10-06T12:07:01.965Z,1.20
2022-10-06T12:10:16.078Z,1.10
2022-10-06T12:13:07.018Z,1.20
2022-10-06T12:19:23.296Z,1.37
2022-10-06T12:22:00.455Z,1.40
2022-10-06T12:24:38.391Z,1.60
2022-10-06T12:27:28.113Z,1.30
2022-10-06T12:30:02.380Z,1.40
2022-10-06T12:32:49.854Z,1.57
2022-10-06T12:35:25.850Z,1.47
2022-10-06T12:37:54.861Z,1.87
2022-10-06T12:40:54.481Z,1.80
2022-10-06T12:43:32.850Z,1.37
2022-10-06T12:46:07.974Z,1.40
2022-10-06T12:48:40.696Z,1.60
2022-10-06T12:51:25.654Z,1.43
2022-10-06T12:54:00.593Z,1.57
2022-10-06T12:56:31.678Z,1.77
2022-10-06T12:58:59.642Z,1.90
2022-10-06T13:01:28.409Z,1.90
2022-10-06T13:03:56.292Z,1.47
2022-10-06T13:06:26.316Z,1.70
2022-10-06T13:09:07.078Z,1.60
2022-10-06T13:11:34.804Z,1.40
2022-10-06T13:14:10.806Z,1.60
2022-10-06T13:16:41.671Z,1.30
2022-10-06T13:19:17.977Z,1.77
2022-10-06T13:21:48.197Z,1.80
2022-10-06T13:24:20.506Z,1.87
2022-10-06T13:26:49.125Z,1.60
2022-10-06T13:29:22.703Z,1.97
2022-10-06T13:31:53.191Z,1.50
2022-10-06T13:34:28.651Z,1.67
2022-10-06T13:37:00.396Z,1.70
2022-10-06T13:39:31.807Z,2.93
2022-10-06T13:42:03.523Z,3.03
2022-10-06T13:44:35.886Z,2.00
2022-10-06T13:47:08.278Z,2.27
2022-10-06T13:49:44.004Z,2.17
2022-10-06T13:52:19.857Z,1.60
2022-10-06T13:54:52.184Z,1.50
2022-10-06T13:57:37.930Z,2.00
2022-10-06T14:00:16.141Z,1.60
2022-10-06T14:02:46.035Z,1.63
2022-10-06T14:05:31.691Z,1.50
2022-10-06T14:08:03.399Z,1.53
2022-10-06T14:10:37.742Z,1.60
2022-10-06T14:13:09.775Z,1.43
2022-10-06T14:15:46.047Z,1.40
2022-10-06T14:18:20.473Z,1.10
2022-10-06T14:20:49.786Z,1.70
2022-10-06T14:23:39.923Z,1.33
2022-10-06T14:26:08.390Z,1.77
2022-10-06T14:28:36.142Z,1.80
2022-10-06T14:31:05.027Z,1.60
2022-10-06T14:33:33.936Z,1.67
2022-10-06T14:36:02.554Z,1.63
2022-10-06T14:38:30.573Z,8.23
2022-10-06T14:41:02.601Z,2.07
2022-10-06T14:43:30.342Z,1.53
2022-10-06T14:46:02.630Z,1.40
2022-10-06T14:48:33.317Z,1.93
2022-10-06T14:51:03.066Z,1.70
2022-10-06T14:53:31.463Z,1.23
2022-10-06T14:56:03.586Z,1.20
2022-10-06T14:58:31.832Z,1.40
2022-10-06T15:01:06.024Z,1.60
2022-10-06T15:03:34.192Z,1.93
2022-10-06T15:06:21.242Z,1.53
2022-10-06T15:08:52.659Z,1.50
2022-10-06T15:11:24.113Z,1.70
2022-10-06T15:13:53.769Z,1.50
2022-10-06T15:16:23.057Z,1.67
2022-10-06T15:18:51.440Z,1.60
2022-10-06T15:21:21.068Z,1.58
2022-10-06T15:23:49.105Z,1.50
2022-10-06T15:26:34.395Z,1.45
2022-10-06T15:29:03.750Z,1.45
2022-10-06T15:31:33.889Z,1.33
2022-10-06T15:34:03.469Z,1.20
2022-10-06T15:36:33.454Z,1.33
2022-10-06T15:39:05.974Z,1.42
2022-10-06T15:41:35.035Z,1.75
2022-10-06T15:44:04.916Z,1.13
2022-10-06T15:46:34.441Z,1.58
2022-10-06T15:49:05.183Z,1.40
2022-10-06T15:51:36.544Z,1.73
2022-10-06T15:54:06.135Z,1.58
2022-10-06T15:56:34.038Z,1.67
2022-10-06T15:59:01.840Z,1.47
2022-10-06T16:01:39.978Z,1.77
2022-10-06T16:04:15.656Z,1.83
2022-10-06T16:06:50.652Z,1.70
2022-10-06T16:09:19.731Z,1.73
2022-10-06T16:11:48.685Z,1.90
2022-10-06T16:14:17.473Z,1.60
2022-10-06T16:16:48.345Z,2.13
2022-10-06T16:19:17.590Z,2.07
2022-10-06T16:21:47.781Z,1.80
2022-10-06T16:24:16.043Z,1.63
2022-10-06T16:26:44.175Z,1.60
2022-10-06T16:29:12.417Z,1.70
2022-10-06T16:31:40.714Z,1.83
2022-10-06T16:34:09.977Z,1.80
2022-10-06T16:36:38.107Z,1.87
2022-10-06T16:39:07.987Z,1.80
2022-10-06T16:41:35.757Z,1.93
2022-10-06T16:44:03.549Z,2.07
2022-10-06T16:46:33.171Z,1.73
2022-10-06T16:49:02.551Z,2.00
2022-10-06T16:51:33.176Z,2.17
2022-10-06T16:54:02.833Z,1.67
2022-10-06T16:56:32.274Z,1.53
2022-10-06T16:59:01.455Z,1.97
2022-10-06T17:01:32.028Z,1.93
2022-10-06T17:04:02.635Z,2.07
2022-10-06T17:06:32.451Z,2.13
2022-10-06T17:09:00.395Z,2.37
2022-10-06T17:11:28.349Z,2.63
2022-10-06T17:13:57.963Z,2.37
2022-10-06T17:16:27.411Z,3.00
2022-10-06T17:18:56.620Z,7.07
2022-10-06T17:21:46.241Z,3.90
2022-10-06T17:24:14.697Z,2.70
2022-10-06T17:26:44.780Z,3.00
2022-10-06T17:29:15.967Z,3.00
2022-10-06T17:31:44.449Z,3.43
2022-10-06T17:34:20.472Z,3.70
2022-10-06T17:36:51.243Z,3.07
2022-10-06T17:39:22.515Z,4.63
2022-10-06T17:41:51.839Z,5.03
2022-10-06T17:44:22.379Z,3.90
2022-10-06T17:46:52.316Z,4.00
2022-10-06T17:49:21.595Z,4.57
2022-10-06T17:51:50.611Z,3.83
2022-10-06T17:54:21.434Z,5.10
2022-10-06T17:56:51.310Z,4.70
2022-10-06T17:59:21.606Z,4.90
2022-10-06T18:01:51.252Z,6.00
2022-10-06T18:04:19.910Z,6.10
2022-10-06T18:06:48.978Z,5.87
2022-10-06T18:09:17.131Z,6.10
2022-10-06T18:11:56.341Z,6.53
2022-10-06T18:14:26.765Z,6.13
2022-10-06T18:16:57.445Z,8.53
2022-10-06T18:19:28.661Z,8.90
2022-10-06T18:21:58.185Z,10.93
2022-10-06T18:24:28.109Z,10.73
2022-10-06T18:27:03.167Z,11.43
2022-10-06T18:29:33.207Z,11.20
2022-10-06T18:32:34.827Z,10.47
2022-10-06T18:37:37.803Z,9.87
2022-10-06T18:40:08.758Z,9.13
2022-10-06T18:42:38.340Z,8.40
2022-10-06T18:45:24.933Z,8.83
2022-10-06T18:48:10.168Z,9.20
2022-10-06T18:50:39.433Z,9.30
2022-10-06T18:53:07.789Z,8.20
2022-10-06T18:55:35.627Z,8.47
2022-10-06T18:58:08.173Z,8.10
2022-10-06T19:00:36.521Z,7.83
2022-10-06T19:03:05.484Z,7.87
2022-10-06T19:05:56.150Z,8.33
2022-10-06T19:08:41.474Z,7.73
2022-10-06T19:11:46.019Z,8.67
2022-10-06T19:14:19.086Z,7.30
2022-10-06T19:16:54.489Z,6.90
2022-10-06T19:19:31.235Z,7.50
2022-10-06T19:22:02.540Z,6.83
2022-10-06T19:24:33.727Z,7.70
2022-10-06T19:27:02.746Z,7.53
2022-10-06T19:29:37.162Z,7.80
2022-10-06T19:32:10.177Z,8.83
2022-10-06T19:34:38.992Z,8.67
2022-10-06T19:37:13.179Z,8.03
2022-10-06T19:39:47.139Z,8.53
2022-10-06T19:42:34.818Z,8.00
2022-10-06T19:45:09.670Z,7.77
2022-10-06T19:47:38.879Z,7.20
2022-10-06T19:50:12.578Z,8.00
2022-10-06T19:52:46.564Z,7.57
2022-10-06T19:55:16.364Z,7.60
2022-10-06T19:57:46.493Z,7.63
2022-10-06T20:00:16.976Z,7.97
2022-10-06T20:02:50.823Z,9.27
2022-10-06T20:05:19.514Z,7.30
2022-10-06T20:07:49.573Z,7.47
2022-10-06T20:10:18.727Z,10.53
2022-10-06T20:12:49.416Z,9.60
2022-10-06T20:15:19.695Z,9.00
2022-10-06T20:17:47.924Z,7.60
2022-10-06T20:20:16.036Z,6.73
2022-10-06T20:22:44.596Z,7.03
2022-10-06T20:25:12.465Z,6.50
2022-10-06T20:27:40.325Z,7.33
2022-10-06T20:30:09.578Z,7.50
2022-10-06T20:32:39.156Z,7.37
2022-10-06T20:35:07.994Z,6.90
2022-10-06T20:37:41.844Z,7.37
2022-10-06T20:40:28.550Z,6.97
2022-10-06T20:42:59.063Z,7.47
2022-10-06T20:45:27.013Z,7.10
2022-10-06T20:47:59.572Z,7.47
2022-10-06T20:50:27.353Z,7.47
2022-10-06T20:52:55.056Z,7.40
2022-10-06T20:55:22.914Z,6.47
2022-10-06T20:57:50.833Z,6.83
2022-10-06T21:00:19.064Z,6.70
2022-10-06T21:02:46.905Z,6.17
2022-10-06T21:05:16.414Z,7.53
2022-10-06T21:07:45.341Z,7.07
2022-10-06T21:10:14.712Z,7.00
2022-10-06T21:12:48.406Z,7.27
2022-10-06T21:15:16.424Z,6.97
2022-10-06T21:17:46.532Z,6.60
2022-10-06T21:20:16.132Z,5.90
2022-10-06T21:22:43.888Z,6.23
2022-10-06T21:25:12.275Z,5.47
2022-10-06T21:27:40.162Z,6.07
2022-10-06T21:30:10.188Z,6.27
2022-10-06T21:32:38.414Z,6.10
2022-10-06T21:35:08.346Z,6.20
2022-10-06T21:37:37.509Z,6.33
2022-10-06T21:40:05.992Z,5.70
2022-10-06T21:42:33.910Z,5.57
2022-10-06T21:45:01.893Z,6.03
2022-10-06T21:47:30.018Z,5.97
2022-10-06T21:49:57.841Z,6.10
2022-10-06T21:52:26.047Z,6.27
2022-10-06T21:54:55.381Z,6.10
2022-10-06T21:57:23.234Z,6.00
2022-10-06T21:59:51.030Z,5.70
2022-10-06T22:02:18.838Z,5.93
2022-10-06T22:04:46.641Z,6.03
2022-10-06T22:07:14.450Z,5.50
2022-10-06T22:09:42.392Z,6.10
2022-10-06T22:12:11.478Z,6.03
2022-10-06T22:14:39.328Z,6.53
2022-10-06T22:17:07.456Z,6.33
2022-10-06T22:19:35.237Z,7.20
2022-10-06T22:22:03.010Z,8.50
2022-10-06T22:24:30.725Z,7.43
2022-10-06T22:26:58.742Z,8.33
2022-10-06T22:29:28.090Z,8.37
2022-10-06T22:31:57.727Z,8.90
2022-10-06T22:34:25.862Z,9.00
2022-10-06T22:36:53.596Z,7.93
2022-10-06T22:39:21.347Z,9.57
2022-10-06T22:41:49.117Z,10.23
2022-10-06T22:44:17.733Z,8.30
2022-10-06T22:46:48.059Z,8.20
2022-10-06T22:49:15.923Z,7.57
2022-10-06T22:51:43.757Z,7.63
2022-10-06T22:54:18.731Z,8.90
2022-10-06T22:56:46.775Z,8.10
2022-10-06T22:59:14.558Z,8.20
2022-10-06T23:01:42.428Z,8.67
2022-10-06T23:04:11.521Z,6.97
2022-10-06T23:06:39.261Z,7.13
2022-10-06T23:09:07.076Z,7.37
2022-10-06T23:11:34.895Z,7.60
2022-10-06T23:14:02.601Z,7.60
2022-10-06T23:16:30.501Z,7.80
2022-10-06T23:18:58.720Z,7.63
2022-10-06T23:21:28.037Z,7.40
2022-10-06T23:23:59.055Z,7.30
2022-10-06T23:26:27.511Z,8.13
2022-10-06T23:28:58.970Z,7.40
2022-10-06T23:31:28.040Z,6.83
2022-10-06T23:33:56.179Z,5.77
2022-10-06T23:36:24.046Z,7.10
2022-10-06T23:38:53.240Z,6.60
2022-10-06T23:41:22.646Z,7.23
2022-10-06T23:43:50.548Z,6.80
2022-10-06T23:46:18.702Z,7.33
2022-10-06T23:48:46.632Z,7.40
2022-10-06T23:51:16.273Z,7.17
2022-10-06T23:53:44.482Z,7.33
2022-10-06T23:56:14.325Z,6.50
2022-10-06T23:58:42.755Z,7.30
